createdAt,value
2019-01-29T00:02:24.917Z,45.80
2019-01-29T00:04:53.224Z,45.70
2019-01-29T00:07:21.614Z,45.30
2019-01-29T00:09:50.013Z,45.10
2019-01-29T00:12:18.396Z,45.00
2019-01-29T00:14:46.821Z,44.80
2019-01-29T00:17:15.278Z,44.60
2019-01-29T00:19:43.662Z,44.40
2019-01-29T00:22:12.021Z,44.50
2019-01-29T00:24:40.343Z,44.70
2019-01-29T00:27:08.719Z,44.80
2019-01-29T00:29:37.089Z,45.00
2019-01-29T00:32:05.487Z,44.90
2019-01-29T00:34:33.870Z,45.60
2019-01-29T00:37:02.247Z,45.80
2019-01-29T00:39:30.716Z,46.10
2019-01-29T00:41:59.093Z,46.50
2019-01-29T00:44:27.495Z,46.70
2019-01-29T00:46:55.990Z,46.90
2019-01-29T00:49:24.360Z,46.80
2019-01-29T00:51:52.770Z,46.80
2019-01-29T00:54:21.169Z,46.50
2019-01-29T00:56:49.545Z,46.10
2019-01-29T00:59:17.850Z,45.70
2019-01-29T01:01:46.236Z,45.80
2019-01-29T01:04:14.624Z,45.10
2019-01-29T01:06:43.066Z,45.20
2019-01-29T01:09:11.351Z,45.10
2019-01-29T01:11:39.672Z,45.30
2019-01-29T01:14:08.029Z,45.00
2019-01-29T01:16:36.435Z,44.90
2019-01-29T01:19:04.795Z,45.00
2019-01-29T01:21:33.178Z,44.70
2019-01-29T01:24:01.538Z,44.60
2019-01-29T01:26:30.052Z,44.30
2019-01-29T01:28:58.403Z,44.30
2019-01-29T01:31:26.771Z,44.20
2019-01-29T01:33:55.063Z,44.20
2019-01-29T01:36:23.366Z,43.20
2019-01-29T01:38:51.765Z,42.70
2019-01-29T01:41:20.154Z,42.50
2019-01-29T01:43:48.532Z,42.40
2019-01-29T01:46:16.849Z,42.20
2019-01-29T01:48:45.225Z,42.00
2019-01-29T01:51:13.610Z,41.70
2019-01-29T01:53:42.000Z,41.60
2019-01-29T01:56:10.354Z,41.50
2019-01-29T01:58:38.646Z,40.90
2019-01-29T02:01:06.969Z,41.10
2019-01-29T02:03:35.352Z,41.10
2019-01-29T02:06:03.720Z,40.90
2019-01-29T02:08:32.013Z,40.90
2019-01-29T02:11:00.407Z,41.30
2019-01-29T02:13:28.756Z,41.50
2019-01-29T02:15:57.160Z,41.20
2019-01-29T02:18:25.515Z,41.30
2019-01-29T02:20:53.819Z,41.60
2019-01-29T02:23:22.211Z,41.70
2019-01-29T02:25:50.600Z,41.70
2019-01-29T02:28:18.913Z,41.80
2019-01-29T02:30:47.270Z,41.80
2019-01-29T02:33:15.770Z,41.80
2019-01-29T02:35:44.154Z,41.80
2019-01-29T02:38:12.519Z,42.10
2019-01-29T02:40:40.827Z,42.20
2019-01-29T02:43:09.215Z,42.20
2019-01-29T02:45:37.614Z,42.30
2019-01-29T02:48:06.007Z,42.30
2019-01-29T02:50:34.385Z,42.40
2019-01-29T02:53:02.750Z,42.40
2019-01-29T02:55:31.054Z,42.50
2019-01-29T02:57:59.428Z,42.50
2019-01-29T03:00:28.094Z,42.40
2019-01-29T03:02:56.388Z,42.70
2019-01-29T03:05:24.685Z,42.60
2019-01-29T03:07:53.066Z,42.70
2019-01-29T03:10:23.514Z,42.80
2019-01-29T03:12:51.787Z,43.00
2019-01-29T03:15:25.330Z,43.10
2019-01-29T03:17:53.726Z,43.20
2019-01-29T03:20:22.102Z,43.40
2019-01-29T03:22:50.491Z,43.90
2019-01-29T03:25:18.860Z,43.70
2019-01-29T03:27:47.250Z,43.90
2019-01-29T03:30:17.773Z,44.00
2019-01-29T03:32:46.166Z,44.20
2019-01-29T03:35:14.542Z,44.30
2019-01-29T03:37:42.912Z,44.30
2019-01-29T03:40:13.957Z,44.40
2019-01-29T03:42:42.450Z,44.50
2019-01-29T03:45:13.499Z,44.50
2019-01-29T03:47:41.962Z,44.40
2019-01-29T03:50:13.531Z,44.50
2019-01-29T03:52:41.872Z,44.40
2019-01-29T03:55:10.543Z,44.50
2019-01-29T03:57:38.913Z,44.50
2019-01-29T04:00:10.663Z,44.60
2019-01-29T04:02:39.035Z,44.20
2019-01-29T04:05:07.408Z,44.20
2019-01-29T04:07:35.776Z,44.10
2019-01-29T04:10:06.420Z,43.80
2019-01-29T04:12:34.785Z,43.70
2019-01-29T04:15:03.527Z,43.70
2019-01-29T04:17:31.897Z,43.70
2019-01-29T04:20:00.287Z,43.70
2019-01-29T04:22:28.655Z,43.60
2019-01-29T04:24:56.956Z,43.60
2019-01-29T04:27:25.335Z,43.50
2019-01-29T04:29:54.540Z,43.60
2019-01-29T04:32:22.916Z,43.70
2019-01-29T04:34:51.298Z,43.60
2019-01-29T04:37:19.682Z,43.70
2019-01-29T04:39:48.051Z,43.70
2019-01-29T04:42:16.434Z,43.70
2019-01-29T04:44:44.808Z,43.60
2019-01-29T04:47:13.190Z,43.50
2019-01-29T04:49:41.542Z,43.40
2019-01-29T04:52:09.926Z,43.40
2019-01-29T04:54:38.211Z,43.20
2019-01-29T04:57:06.484Z,43.20
2019-01-29T04:59:34.871Z,43.20
2019-01-29T05:02:03.307Z,43.00
2019-01-29T05:04:31.685Z,42.90
2019-01-29T05:07:00.057Z,42.50
2019-01-29T05:09:28.471Z,42.50
2019-01-29T05:11:56.897Z,42.20
2019-01-29T05:14:25.258Z,42.20
2019-01-29T05:16:53.656Z,41.90
2019-01-29T05:19:22.053Z,41.70
2019-01-29T05:21:50.451Z,41.50
2019-01-29T05:24:18.829Z,41.50
2019-01-29T05:26:47.139Z,41.30
2019-01-29T05:29:15.490Z,41.40
2019-01-29T05:31:43.826Z,41.40
2019-01-29T05:34:12.200Z,41.20
2019-01-29T05:36:40.575Z,41.10
2019-01-29T05:39:09.208Z,40.90
2019-01-29T05:41:37.537Z,40.90
2019-01-29T05:44:05.917Z,40.70
2019-01-29T05:46:34.318Z,40.80
2019-01-29T05:49:02.703Z,40.90
2019-01-29T05:51:31.093Z,41.00
2019-01-29T05:53:59.471Z,41.00
2019-01-29T05:56:27.771Z,41.10
2019-01-29T05:58:56.138Z,41.10
2019-01-29T06:01:24.524Z,41.00
2019-01-29T06:03:52.889Z,40.90
2019-01-29T06:06:21.173Z,41.10
2019-01-29T06:08:49.683Z,41.20
2019-01-29T06:11:17.994Z,41.20
2019-01-29T06:13:46.444Z,41.30
2019-01-29T06:16:14.795Z,41.40
2019-01-29T06:18:43.195Z,41.50
2019-01-29T06:21:11.561Z,41.50
2019-01-29T06:23:40.058Z,41.50
2019-01-29T06:26:08.514Z,41.90
2019-01-29T06:28:36.947Z,41.60
2019-01-29T06:31:05.235Z,41.60
2019-01-29T06:33:33.512Z,41.70
2019-01-29T06:36:01.897Z,41.60
2019-01-29T06:38:30.261Z,41.60
2019-01-29T06:40:58.633Z,41.60
2019-01-29T06:43:26.943Z,41.80
2019-01-29T06:45:55.301Z,41.90
2019-01-29T06:48:23.655Z,42.00
2019-01-29T06:50:52.031Z,42.10
2019-01-29T06:53:20.363Z,41.90
2019-01-29T06:55:48.768Z,42.30
2019-01-29T06:58:17.131Z,41.80
2019-01-29T07:00:45.490Z,41.90
2019-01-29T07:03:13.858Z,41.90
2019-01-29T07:05:42.259Z,42.00
2019-01-29T07:08:10.626Z,42.00
2019-01-29T07:10:38.935Z,42.20
2019-01-29T07:13:07.337Z,42.20
2019-01-29T07:15:52.854Z,42.30
2019-01-29T07:18:22.893Z,42.30
2019-01-29T07:20:51.284Z,42.30
2019-01-29T07:23:19.657Z,42.50
2019-01-29T07:25:48.107Z,42.60
2019-01-29T07:28:16.494Z,42.70
2019-01-29T07:30:44.892Z,42.70
2019-01-29T07:33:13.280Z,42.80
2019-01-29T07:35:41.680Z,42.80
2019-01-29T07:38:10.127Z,42.80
2019-01-29T07:40:38.535Z,42.80
2019-01-29T07:43:06.929Z,42.40
2019-01-29T07:45:35.306Z,42.90
2019-01-29T07:48:03.690Z,42.80
2019-01-29T07:50:32.111Z,42.80
2019-01-29T07:53:00.451Z,43.00
2019-01-29T07:55:28.773Z,43.10
2019-01-29T07:57:57.205Z,43.10
2019-01-29T08:00:25.582Z,43.30
2019-01-29T08:02:53.962Z,43.10
2019-01-29T08:05:22.296Z,43.20
2019-01-29T08:07:50.672Z,43.20
2019-01-29T08:10:19.020Z,43.40
2019-01-29T08:12:47.406Z,43.30
2019-01-29T08:15:19.142Z,43.20
2019-01-29T08:17:47.568Z,43.20
2019-01-29T08:20:16.915Z,43.10
2019-01-29T08:22:45.304Z,43.30
2019-01-29T08:25:13.684Z,43.30
2019-01-29T08:27:42.041Z,43.40
2019-01-29T08:30:15.702Z,43.50
2019-01-29T08:32:44.134Z,43.50
2019-01-29T08:35:13.940Z,43.50
2019-01-29T08:37:42.267Z,43.50
2019-01-29T08:40:12.507Z,43.40
2019-01-29T08:42:40.910Z,43.40
2019-01-29T08:45:17.702Z,43.50
2019-01-29T08:47:46.154Z,43.50
2019-01-29T08:50:24.916Z,43.50
2019-01-29T08:52:53.279Z,43.50
2019-01-29T08:55:21.650Z,43.60
2019-01-29T08:57:49.994Z,43.70
2019-01-29T09:00:22.149Z,43.90
2019-01-29T09:02:50.470Z,44.00
2019-01-29T09:05:18.872Z,44.20
2019-01-29T09:07:47.250Z,44.30
2019-01-29T09:10:17.824Z,44.60
2019-01-29T09:12:46.204Z,44.70
2019-01-29T09:15:18.823Z,44.80
2019-01-29T09:17:48.986Z,44.90
2019-01-29T09:20:23.870Z,44.70
2019-01-29T09:22:52.244Z,44.80
2019-01-29T09:25:22.725Z,45.00
2019-01-29T09:27:50.774Z,45.00
2019-01-29T09:30:22.685Z,45.20
2019-01-29T09:32:51.047Z,45.10
2019-01-29T09:35:19.418Z,44.90
2019-01-29T09:37:47.766Z,44.90
2019-01-29T09:40:21.158Z,44.80
2019-01-29T09:42:49.600Z,44.70
2019-01-29T09:45:19.428Z,44.40
2019-01-29T09:47:47.834Z,44.40
2019-01-29T09:50:23.703Z,44.40
2019-01-29T09:52:52.504Z,44.50
2019-01-29T09:55:29.136Z,44.20
2019-01-29T09:57:52.550Z,44.30
2019-01-29T10:00:29.379Z,44.20
2019-01-29T10:02:57.715Z,44.40
2019-01-29T10:05:26.039Z,43.90
2019-01-29T10:07:54.360Z,43.40
2019-01-29T10:10:22.702Z,43.70
2019-01-29T10:12:50.999Z,43.30
2019-01-29T10:15:47.477Z,43.00
2019-01-29T10:18:15.933Z,43.00
2019-01-29T10:20:44.301Z,42.90
2019-01-29T10:23:12.693Z,43.00
2019-01-29T10:25:41.080Z,42.60
2019-01-29T10:28:09.463Z,42.50
2019-01-29T10:30:37.740Z,42.40
2019-01-29T10:33:06.049Z,42.20
2019-01-29T10:35:34.427Z,42.30
2019-01-29T10:38:02.801Z,42.50
2019-01-29T10:40:31.111Z,42.20
2019-01-29T10:42:59.491Z,42.20
2019-01-29T10:45:29.435Z,42.10
2019-01-29T10:47:58.010Z,42.10
2019-01-29T10:50:28.917Z,41.90
2019-01-29T10:52:57.292Z,42.10
2019-01-29T10:55:25.674Z,42.20
2019-01-29T10:57:54.058Z,42.50
2019-01-29T11:00:25.779Z,42.70
2019-01-29T11:02:54.220Z,42.60
2019-01-29T11:05:23.085Z,42.40
2019-01-29T11:07:51.368Z,42.40
2019-01-29T11:10:20.918Z,42.40
2019-01-29T11:12:49.271Z,42.40
2019-01-29T11:15:26.496Z,42.20
2019-01-29T11:17:54.802Z,42.20
2019-01-29T11:20:23.256Z,42.20
2019-01-29T11:22:51.636Z,42.20
2019-01-29T11:25:25.615Z,41.60
2019-01-29T11:27:53.999Z,41.80
2019-01-29T11:30:25.148Z,41.90
2019-01-29T11:32:53.544Z,41.30
2019-01-29T11:35:21.914Z,41.20
2019-01-29T11:37:50.555Z,41.00
2019-01-29T11:40:30.677Z,40.90
2019-01-29T11:42:59.017Z,40.00
2019-01-29T11:45:36.149Z,39.90
2019-01-29T11:48:04.431Z,40.20
2019-01-29T11:50:32.749Z,40.50
2019-01-29T11:53:01.221Z,40.60
2019-01-29T11:55:29.603Z,40.50
2019-01-29T11:57:57.971Z,40.30
2019-01-29T12:00:32.967Z,40.20
2019-01-29T12:03:01.278Z,40.10
2019-01-29T12:05:29.729Z,40.00
2019-01-29T12:07:58.100Z,39.90
2019-01-29T12:10:26.385Z,39.80
2019-01-29T12:12:54.701Z,39.60
2019-01-29T12:15:23.048Z,39.60
2019-01-29T12:17:51.475Z,39.80
2019-01-29T12:20:20.590Z,39.40
2019-01-29T12:22:48.949Z,39.40
2019-01-29T12:25:17.363Z,39.70
2019-01-29T12:27:45.740Z,39.80
2019-01-29T12:30:22.844Z,39.30
2019-01-29T12:32:51.741Z,39.20
2019-01-29T12:35:20.126Z,38.90
2019-01-29T12:37:48.510Z,39.10
2019-01-29T12:40:16.895Z,39.20
2019-01-29T12:42:45.272Z,39.00
2019-01-29T12:45:16.783Z,39.00
2019-01-29T12:47:45.305Z,38.50
2019-01-29T12:50:28.541Z,38.50
2019-01-29T12:52:58.587Z,38.30
2019-01-29T12:55:26.973Z,38.50
2019-01-29T12:57:55.346Z,38.30
2019-01-29T13:00:25.372Z,38.20
2019-01-29T13:02:53.812Z,38.20
2019-01-29T13:05:22.200Z,38.10
2019-01-29T13:07:50.492Z,38.00
2019-01-29T13:10:20.992Z,38.20
2019-01-29T13:12:49.380Z,38.70
2019-01-29T13:15:23.937Z,38.90
2019-01-29T13:17:52.315Z,38.30
2019-01-29T13:20:20.611Z,38.00
2019-01-29T13:22:49.052Z,38.10
2019-01-29T13:25:17.328Z,38.20
2019-01-29T13:27:45.624Z,38.30
2019-01-29T13:30:31.326Z,37.80
2019-01-29T13:32:59.644Z,37.90
2019-01-29T13:35:30.922Z,38.00
2019-01-29T13:37:59.245Z,38.20
2019-01-29T13:40:27.624Z,38.00
2019-01-29T13:42:55.988Z,38.10
2019-01-29T13:45:24.294Z,38.30
2019-01-29T13:47:52.655Z,38.50
2019-01-29T13:50:26.650Z,38.60
2019-01-29T13:52:55.019Z,37.90
2019-01-29T13:55:23.575Z,38.10
2019-01-29T13:57:51.944Z,37.90
2019-01-29T14:00:23.446Z,38.10
2019-01-29T14:02:51.782Z,37.40
2019-01-29T14:05:20.115Z,37.10
2019-01-29T14:07:48.463Z,36.90
2019-01-29T14:10:17.477Z,36.60
2019-01-29T14:12:45.820Z,36.50
2019-01-29T14:15:33.261Z,36.50
2019-01-29T14:18:01.558Z,36.20
2019-01-29T14:20:29.942Z,36.10
2019-01-29T14:22:58.314Z,35.90
2019-01-29T14:25:26.717Z,36.00
2019-01-29T14:27:55.088Z,36.30
2019-01-29T14:30:25.802Z,36.50
2019-01-29T14:32:54.147Z,36.70
2019-01-29T14:35:22.427Z,36.70
2019-01-29T14:38:12.360Z,36.60
2019-01-29T14:40:40.689Z,36.80
2019-01-29T14:43:24.502Z,36.80
2019-01-29T14:45:52.875Z,36.90
2019-01-29T14:48:21.257Z,36.90
2019-01-29T14:50:49.608Z,37.10
2019-01-29T14:53:17.909Z,37.20
2019-01-29T14:55:46.229Z,37.10
2019-01-29T14:58:14.602Z,37.40
2019-01-29T15:00:42.954Z,36.80
2019-01-29T15:03:11.393Z,36.70
2019-01-29T15:05:39.943Z,36.90
2019-01-29T15:08:08.331Z,37.00
2019-01-29T15:10:36.682Z,37.00
2019-01-29T15:13:05.063Z,37.00
2019-01-29T15:15:37.751Z,36.90
2019-01-29T15:18:13.548Z,37.00
2019-01-29T15:20:41.836Z,36.80
2019-01-29T15:23:10.144Z,36.90
2019-01-29T15:25:38.452Z,37.00
2019-01-29T15:28:06.835Z,37.20
2019-01-29T15:30:35.203Z,37.20
2019-01-29T15:33:03.590Z,37.20
2019-01-29T15:35:31.968Z,37.10
2019-01-29T15:38:00.349Z,37.30
2019-01-29T15:40:28.731Z,37.30
2019-01-29T15:42:57.107Z,37.40
2019-01-29T15:45:27.221Z,37.40
2019-01-29T15:47:55.591Z,37.50
2019-01-29T15:50:26.591Z,37.60
2019-01-29T15:52:54.933Z,37.60
2019-01-29T15:55:23.245Z,37.60
2019-01-29T15:57:51.618Z,37.60
2019-01-29T16:00:28.771Z,37.50
2019-01-29T16:02:57.141Z,37.40
2019-01-29T16:05:31.266Z,37.50
2019-01-29T16:07:59.563Z,37.50
2019-01-29T16:10:39.183Z,37.60
2019-01-29T16:13:00.767Z,37.60
2019-01-29T16:15:29.055Z,37.70
2019-01-29T16:17:57.514Z,37.70
2019-01-29T16:20:25.852Z,37.70
2019-01-29T16:22:54.178Z,37.70
2019-01-29T16:25:25.250Z,37.80
2019-01-29T16:27:53.632Z,37.90
2019-01-29T16:30:29.517Z,37.90
2019-01-29T16:32:57.880Z,37.90
2019-01-29T16:35:31.466Z,38.00
2019-01-29T16:37:59.913Z,37.90
2019-01-29T16:40:33.909Z,37.90
2019-01-29T16:43:02.287Z,37.90
2019-01-29T16:45:34.759Z,38.00
2019-01-29T16:48:03.282Z,38.00
2019-01-29T16:50:31.589Z,38.00
2019-01-29T16:53:00.028Z,38.00
2019-01-29T16:55:28.427Z,38.00
2019-01-29T16:57:56.801Z,38.40
2019-01-29T17:00:32.891Z,38.10
2019-01-29T17:03:01.387Z,38.20
2019-01-29T17:05:30.423Z,38.20
2019-01-29T17:07:59.065Z,38.30
2019-01-29T17:10:32.371Z,38.30
2019-01-29T17:13:00.724Z,38.40
2019-01-29T17:15:30.988Z,38.40
2019-01-29T17:18:00.394Z,38.50
2019-01-29T17:20:33.758Z,38.50
2019-01-29T17:23:02.059Z,38.40
2019-01-29T17:25:30.460Z,38.50
2019-01-29T17:27:58.825Z,38.60
2019-01-29T17:30:32.818Z,38.60
2019-01-29T17:33:01.197Z,38.70
2019-01-29T17:35:29.559Z,38.60
2019-01-29T17:37:57.888Z,38.60
2019-01-29T17:40:26.234Z,38.60
2019-01-29T17:42:54.598Z,38.60
2019-01-29T17:45:28.400Z,38.50
2019-01-29T17:47:56.719Z,38.50
2019-01-29T17:50:36.687Z,38.80
2019-01-29T17:53:05.143Z,38.50
2019-01-29T17:55:34.760Z,38.40
2019-01-29T17:58:03.383Z,38.50
2019-01-29T18:00:33.382Z,38.50
2019-01-29T18:03:01.769Z,38.50
2019-01-29T18:05:30.144Z,38.50
2019-01-29T18:07:58.545Z,38.50
2019-01-29T18:10:26.921Z,38.50
2019-01-29T18:12:55.312Z,38.50
2019-01-29T18:15:26.990Z,38.40
2019-01-29T18:17:55.460Z,38.50
2019-01-29T18:20:23.902Z,38.60
2019-01-29T18:22:52.205Z,38.60
2019-01-29T18:25:20.665Z,38.60
2019-01-29T18:27:49.035Z,38.60
2019-01-29T18:30:26.103Z,38.60
2019-01-29T18:32:54.481Z,38.60
2019-01-29T18:35:22.875Z,38.60
2019-01-29T18:37:51.259Z,38.70
2019-01-29T18:40:25.197Z,38.70
2019-01-29T18:42:53.618Z,38.60
2019-01-29T18:45:21.922Z,38.60
2019-01-29T18:47:50.271Z,38.60
2019-01-29T18:50:19.718Z,38.60
2019-01-29T18:52:48.018Z,38.60
2019-01-29T18:55:16.422Z,38.70
2019-01-29T18:57:44.781Z,38.70
2019-01-29T19:00:24.461Z,38.80
2019-01-29T19:02:52.803Z,38.90
2019-01-29T19:05:23.182Z,38.90
2019-01-29T19:07:51.599Z,39.00
2019-01-29T19:10:20.996Z,39.00
2019-01-29T19:12:49.882Z,39.00
2019-01-29T19:15:24.178Z,39.00
2019-01-29T19:17:52.591Z,39.00
2019-01-29T19:20:25.482Z,39.00
2019-01-29T19:22:53.857Z,39.10
2019-01-29T19:25:22.164Z,39.10
2019-01-29T19:27:50.564Z,39.10
2019-01-29T19:30:21.851Z,39.10
2019-01-29T19:32:50.248Z,39.00
2019-01-29T19:35:18.627Z,39.00
2019-01-29T19:37:47.009Z,39.00
2019-01-29T19:40:17.041Z,39.10
2019-01-29T19:42:45.439Z,39.10
2019-01-29T19:45:22.401Z,39.50
2019-01-29T19:47:50.942Z,39.10
2019-01-29T19:50:21.425Z,39.10
2019-01-29T19:52:49.957Z,39.20
2019-01-29T19:55:18.333Z,39.40
2019-01-29T19:57:46.709Z,39.50
2019-01-29T20:00:18.108Z,39.60
2019-01-29T20:02:49.578Z,39.80
2019-01-29T20:05:18.029Z,40.30
2019-01-29T20:07:46.446Z,40.00
2019-01-29T20:10:16.954Z,40.10
2019-01-29T20:12:45.340Z,40.30
2019-01-29T20:15:16.169Z,40.30
2019-01-29T20:17:44.612Z,40.40
2019-01-29T20:20:16.609Z,40.50
2019-01-29T20:22:44.945Z,40.60
2019-01-29T20:25:13.260Z,40.80
2019-01-29T20:27:41.577Z,40.80
2019-01-29T20:30:13.562Z,40.80
2019-01-29T20:32:41.937Z,40.90
2019-01-29T20:35:10.319Z,40.90
2019-01-29T20:37:38.676Z,41.20
2019-01-29T20:40:10.247Z,41.00
2019-01-29T20:42:38.634Z,41.00
2019-01-29T20:45:09.562Z,41.10
2019-01-29T20:47:37.917Z,41.10
2019-01-29T20:50:09.531Z,41.10
2019-01-29T20:52:37.858Z,41.10
2019-01-29T20:55:25.776Z,41.50
2019-01-29T20:57:54.458Z,41.10
2019-01-29T21:00:28.149Z,41.10
2019-01-29T21:02:56.596Z,41.10
2019-01-29T21:05:25.026Z,41.00
2019-01-29T21:07:53.673Z,41.00
2019-01-29T21:10:23.182Z,40.90
2019-01-29T21:12:51.589Z,40.90
2019-01-29T21:15:21.916Z,40.70
2019-01-29T21:17:52.814Z,40.70
2019-01-29T21:20:23.483Z,40.70
2019-01-29T21:22:51.863Z,40.60
2019-01-29T21:25:20.664Z,41.00
2019-01-29T21:27:49.033Z,40.50
2019-01-29T21:30:20.528Z,40.60
2019-01-29T21:32:48.861Z,40.60
2019-01-29T21:35:17.273Z,40.60
2019-01-29T21:37:45.634Z,40.60
2019-01-29T21:40:15.878Z,40.60
2019-01-29T21:42:44.358Z,40.60
2019-01-29T21:45:23.154Z,40.60
2019-01-29T21:47:53.513Z,40.60
2019-01-29T21:50:24.058Z,40.60
2019-01-29T21:52:52.436Z,40.60
2019-01-29T21:55:20.831Z,41.00
2019-01-29T21:57:49.278Z,40.90
2019-01-29T22:00:20.905Z,40.60
2019-01-29T22:02:49.251Z,40.40
2019-01-29T22:05:17.658Z,40.30
2019-01-29T22:07:46.024Z,40.10
2019-01-29T22:10:15.840Z,40.00
2019-01-29T22:12:44.229Z,39.90
2019-01-29T22:15:24.114Z,39.80
2019-01-29T22:17:52.465Z,39.70
2019-01-29T22:20:22.597Z,39.70
2019-01-29T22:22:51.048Z,39.60
2019-01-29T22:25:20.715Z,39.60
2019-01-29T22:27:49.093Z,39.60
2019-01-29T22:30:35.058Z,39.70
2019-01-29T22:33:03.464Z,39.70
2019-01-29T22:35:32.193Z,39.70
2019-01-29T22:38:00.689Z,39.80
2019-01-29T22:40:30.508Z,39.70
2019-01-29T22:43:00.041Z,39.70
2019-01-29T22:45:28.432Z,39.80
2019-01-29T22:47:56.826Z,39.60
2019-01-29T22:50:29.911Z,39.50
2019-01-29T22:52:58.322Z,39.30
2019-01-29T22:55:26.693Z,39.20
2019-01-29T22:57:55.065Z,39.20
2019-01-29T23:00:47.479Z,39.00
2019-01-29T23:03:16.625Z,38.80
2019-01-29T23:05:47.039Z,38.80
2019-01-29T23:08:15.415Z,38.80
2019-01-29T23:10:44.037Z,38.80
2019-01-29T23:13:12.367Z,38.70
2019-01-29T23:15:40.728Z,38.60
2019-01-29T23:18:09.108Z,38.50
2019-01-29T23:20:40.644Z,38.40
2019-01-29T23:23:08.932Z,38.40
2019-01-29T23:25:37.310Z,38.30
2019-01-29T23:28:05.687Z,38.30
2019-01-29T23:30:34.072Z,38.30
2019-01-29T23:33:02.475Z,38.20
2019-01-29T23:35:30.905Z,38.20
2019-01-29T23:37:59.272Z,38.20
2019-01-29T23:40:27.661Z,38.20
2019-01-29T23:42:56.028Z,38.20
2019-01-29T23:45:24.395Z,38.10
2019-01-29T23:47:54.368Z,38.10
2019-01-29T23:50:22.724Z,38.20
2019-01-29T23:52:51.018Z,38.20
2019-01-29T23:55:19.298Z,38.20
2019-01-29T23:57:47.685Z,38.10
